createdAt,value
2018-09-10T00:00:19.379Z,16.30
2018-09-10T00:02:48.184Z,16.30
2018-09-10T00:05:16.880Z,16.30
2018-09-10T00:07:45.584Z,16.40
2018-09-10T00:10:14.428Z,16.30
2018-09-10T00:12:43.162Z,16.40
2018-09-10T00:15:13.039Z,16.40
2018-09-10T00:17:42.425Z,16.30
2018-09-10T00:20:11.483Z,15.10
2018-09-10T00:22:40.324Z,16.30
2018-09-10T00:25:09.436Z,16.30
2018-09-10T00:27:38.297Z,16.20
2018-09-10T00:30:07.128Z,16.20
2018-09-10T00:32:35.810Z,16.20
2018-09-10T00:35:04.634Z,16.30
2018-09-10T00:37:33.403Z,16.30
2018-09-10T00:40:02.244Z,16.30
2018-09-10T00:42:31.066Z,16.30
2018-09-10T00:44:59.806Z,16.30
2018-09-10T00:47:28.596Z,16.10
2018-09-10T00:49:57.422Z,15.90
2018-09-10T00:52:26.098Z,15.90
2018-09-10T00:54:54.846Z,15.80
2018-09-10T00:57:23.639Z,15.80
2018-09-10T00:59:52.603Z,15.70
2018-09-10T01:02:21.480Z,15.60
2018-09-10T01:04:50.261Z,15.60
2018-09-10T01:07:19.098Z,15.60
2018-09-10T01:09:47.965Z,15.60
2018-09-10T01:12:16.894Z,15.60
2018-09-10T01:14:45.625Z,15.60
2018-09-10T01:17:14.376Z,15.60
2018-09-10T01:19:43.356Z,15.60
2018-09-10T01:22:12.063Z,15.60
2018-09-10T01:24:41.113Z,15.50
2018-09-10T01:27:09.909Z,15.50
2018-09-10T01:29:38.628Z,15.50
2018-09-10T01:32:07.405Z,15.40
2018-09-10T01:34:41.296Z,15.40
2018-09-10T01:37:10.020Z,15.30
2018-09-10T01:39:38.783Z,15.40
2018-09-10T01:42:07.658Z,15.40
2018-09-10T01:44:36.568Z,15.40
2018-09-10T01:47:05.446Z,15.30
2018-09-10T01:49:34.341Z,14.60
2018-09-10T01:52:03.557Z,13.70
2018-09-10T01:54:32.770Z,15.40
2018-09-10T01:57:01.657Z,15.50
2018-09-10T01:59:30.527Z,15.40
2018-09-10T02:01:59.289Z,15.30
2018-09-10T02:04:28.571Z,15.30
2018-09-10T02:06:57.896Z,15.20
2018-09-10T02:09:28.447Z,15.20
2018-09-10T02:11:57.578Z,15.20
2018-09-10T02:14:26.421Z,15.10
2018-09-10T02:16:55.113Z,15.10
2018-09-10T02:19:23.928Z,15.20
2018-09-10T02:21:52.700Z,15.20
2018-09-10T02:24:23.518Z,15.20
2018-09-10T02:26:52.277Z,15.20
2018-09-10T02:29:21.030Z,15.10
2018-09-10T02:31:49.841Z,15.00
2018-09-10T02:34:18.680Z,15.00
2018-09-10T02:36:47.404Z,15.00
2018-09-10T02:39:16.188Z,14.90
2018-09-10T02:41:45.216Z,14.90
2018-09-10T02:44:14.589Z,14.90
2018-09-10T02:46:43.429Z,14.90
2018-09-10T02:49:12.303Z,15.00
2018-09-10T02:51:41.021Z,14.50
2018-09-10T02:54:10.134Z,14.90
2018-09-10T02:56:38.963Z,14.90
2018-09-10T02:59:07.705Z,15.00
2018-09-10T03:01:36.574Z,15.00
2018-09-10T03:04:05.279Z,14.90
2018-09-10T03:06:34.016Z,14.90
2018-09-10T03:09:02.773Z,14.90
2018-09-10T03:11:31.512Z,14.90
2018-09-10T03:14:00.179Z,14.30
2018-09-10T03:16:28.862Z,14.80
2018-09-10T03:18:57.685Z,14.70
2018-09-10T03:21:26.570Z,14.70
2018-09-10T03:23:55.347Z,14.80
2018-09-10T03:26:24.040Z,14.70
2018-09-10T03:28:52.714Z,14.70
2018-09-10T03:31:21.526Z,14.70
2018-09-10T03:33:50.245Z,14.70
2018-09-10T03:36:19.000Z,14.30
2018-09-10T03:38:47.880Z,14.70
2018-09-10T03:41:16.680Z,14.60
2018-09-10T03:43:45.398Z,14.60
2018-09-10T03:46:14.269Z,14.60
2018-09-10T03:48:43.629Z,14.60
2018-09-10T03:51:12.665Z,14.60
2018-09-10T03:53:41.562Z,14.50
2018-09-10T03:56:10.335Z,14.60
2018-09-10T03:58:39.074Z,13.30
2018-09-10T04:01:08.223Z,14.60
2018-09-10T04:03:36.956Z,14.60
2018-09-10T04:06:05.825Z,14.60
2018-09-10T04:08:34.697Z,14.60
2018-09-10T04:11:03.440Z,14.80
2018-09-10T04:13:32.281Z,14.80
2018-09-10T04:16:01.145Z,14.90
2018-09-10T04:18:29.902Z,14.90
2018-09-10T04:20:59.250Z,14.80
2018-09-10T04:23:27.956Z,14.80
2018-09-10T04:27:26.260Z,16.10
2018-09-10T04:29:55.027Z,14.80
2018-09-10T04:32:23.757Z,14.80
2018-09-10T04:34:52.566Z,14.70
2018-09-10T04:37:21.382Z,14.70
2018-09-10T04:39:50.071Z,14.70
2018-09-10T04:42:19.076Z,14.70
2018-09-10T04:44:47.804Z,14.70
2018-09-10T04:47:16.528Z,14.60
2018-09-10T04:49:45.399Z,14.70
2018-09-10T04:52:14.143Z,14.60
2018-09-10T04:54:42.776Z,14.70
2018-09-10T04:57:12.394Z,14.70
2018-09-10T04:59:41.177Z,14.50
2018-09-10T05:02:09.829Z,14.60
2018-09-10T05:04:38.657Z,14.60
2018-09-10T05:07:07.252Z,14.60
2018-09-10T05:09:36.030Z,14.50
2018-09-10T05:12:04.832Z,14.50
2018-09-10T05:14:35.208Z,14.50
2018-09-10T05:17:05.466Z,14.50
2018-09-10T05:19:35.472Z,14.50
2018-09-10T05:22:06.860Z,12.80
2018-09-10T05:24:35.501Z,14.50
2018-09-10T05:27:04.345Z,14.60
2018-09-10T05:29:33.067Z,14.60
2018-09-10T05:32:01.725Z,14.60
2018-09-10T05:34:30.386Z,14.60
2018-09-10T05:36:59.109Z,14.60
2018-09-10T05:39:27.979Z,14.70
2018-09-10T05:41:56.864Z,14.80
2018-09-10T05:44:26.172Z,14.80
2018-09-10T05:46:55.067Z,14.90
2018-09-10T05:49:25.692Z,13.70
2018-09-10T05:51:54.582Z,15.10
2018-09-10T05:54:23.161Z,15.10
2018-09-10T05:56:51.912Z,15.10
2018-09-10T05:59:20.889Z,15.10
2018-09-10T06:01:51.196Z,15.20
2018-09-10T06:04:20.275Z,15.20
2018-09-10T06:06:49.232Z,15.20
2018-09-10T06:09:18.060Z,15.30
2018-09-10T06:11:47.021Z,15.30
2018-09-10T06:14:16.917Z,15.20
2018-09-10T06:16:46.465Z,15.30
2018-09-10T06:19:15.313Z,15.30
2018-09-10T06:21:44.368Z,15.30
2018-09-10T06:24:13.360Z,15.30
2018-09-10T06:26:42.097Z,15.30
2018-09-10T06:29:27.228Z,15.30
2018-09-10T06:32:10.616Z,15.30
2018-09-10T06:34:47.687Z,15.40
2018-09-10T06:37:24.970Z,15.50
2018-09-10T06:39:55.245Z,15.60
2018-09-10T06:42:24.093Z,15.60
2018-09-10T06:44:52.768Z,15.70
2018-09-10T06:47:21.884Z,15.70
2018-09-10T06:49:56.007Z,15.70
2018-09-10T06:52:25.103Z,15.80
2018-09-10T06:54:53.788Z,15.90
2018-09-10T06:57:29.042Z,15.90
2018-09-10T07:00:05.116Z,16.00
2018-09-10T07:02:34.090Z,16.00
2018-09-10T07:05:02.947Z,16.20
2018-09-10T07:07:31.651Z,16.20
2018-09-10T07:10:01.357Z,16.30
2018-09-10T07:12:30.292Z,16.50
2018-09-10T07:14:59.033Z,16.50
2018-09-10T07:17:27.913Z,16.60
2018-09-10T07:19:56.953Z,16.60
2018-09-10T07:22:25.856Z,16.70
2018-09-10T07:24:55.190Z,16.80
2018-09-10T07:27:24.028Z,16.20
2018-09-10T07:29:52.698Z,17.00
2018-09-10T07:32:21.664Z,16.30
2018-09-10T07:34:50.574Z,17.10
2018-09-10T07:37:19.386Z,17.20
2018-09-10T07:39:48.333Z,17.20
2018-09-10T07:42:17.317Z,17.30
2018-09-10T07:44:46.090Z,17.40
2018-09-10T07:47:15.056Z,17.50
2018-09-10T07:49:44.042Z,17.60
2018-09-10T07:52:13.053Z,18.50
2018-09-10T07:54:45.099Z,17.70
2018-09-10T07:57:17.220Z,17.80
2018-09-10T07:59:46.031Z,17.90
2018-09-10T08:02:15.095Z,17.90
2018-09-10T08:04:44.438Z,18.00
2018-09-10T08:07:13.758Z,18.10
2018-09-10T08:09:42.944Z,18.20
2018-09-10T08:12:12.723Z,18.30
2018-09-10T08:14:49.716Z,18.40
2018-09-10T08:17:18.800Z,18.50
2018-09-10T08:19:47.806Z,18.60
2018-09-10T08:22:16.693Z,18.70
2018-09-10T08:24:47.589Z,18.80
2018-09-10T08:27:17.918Z,19.00
2018-09-10T08:29:49.799Z,19.20
2018-09-10T08:32:18.630Z,19.30
2018-09-10T08:35:01.232Z,19.40
2018-09-10T08:37:43.551Z,19.50
2018-09-10T08:40:12.737Z,19.60
2018-09-10T08:42:41.909Z,19.80
2018-09-10T08:45:10.673Z,19.90
2018-09-10T08:47:39.528Z,20.00
2018-09-10T08:50:09.023Z,20.10
2018-09-10T08:52:38.198Z,20.10
2018-09-10T08:55:07.094Z,20.20
2018-09-10T08:57:35.847Z,20.20
2018-09-10T09:00:04.959Z,20.30
2018-09-10T09:02:38.898Z,20.30
2018-09-10T09:05:14.964Z,20.40
2018-09-10T09:07:43.814Z,20.60
2018-09-10T09:10:12.676Z,20.80
2018-09-10T09:12:44.540Z,20.90
2018-09-10T09:15:13.284Z,20.90
2018-09-10T09:17:42.275Z,21.10
2018-09-10T09:20:11.832Z,21.20
2018-09-10T09:22:40.728Z,21.30
2018-09-10T09:25:09.873Z,21.20
2018-09-10T09:27:42.399Z,21.20
2018-09-10T09:30:19.153Z,21.20
2018-09-10T09:32:48.440Z,21.20
2018-09-10T09:35:17.482Z,21.20
2018-09-10T09:37:51.485Z,21.20
2018-09-10T09:40:25.523Z,21.40
2018-09-10T09:43:02.539Z,21.40
2018-09-10T09:45:37.248Z,21.60
2018-09-10T09:48:06.278Z,21.80
2018-09-10T09:50:40.838Z,22.10
2018-09-10T09:53:16.126Z,22.30
2018-09-10T09:55:56.416Z,22.30
2018-09-10T09:58:25.391Z,22.40
2018-09-10T10:01:09.936Z,22.50
2018-09-10T10:03:50.923Z,22.70
2018-09-10T10:06:19.954Z,22.70
2018-09-10T10:08:48.711Z,22.70
2018-09-10T10:11:19.669Z,22.90
2018-09-10T10:13:49.465Z,23.70
2018-09-10T10:16:20.000Z,24.70
2018-09-10T10:18:48.695Z,25.20
2018-09-10T10:21:18.443Z,26.60
2018-09-10T10:23:47.467Z,26.80
2018-09-10T10:26:16.405Z,27.20
2018-09-10T10:28:45.550Z,27.50
2018-09-10T10:31:14.772Z,27.70
2018-09-10T10:33:43.653Z,27.80
2018-09-10T10:36:12.811Z,28.00
2018-09-10T10:38:41.615Z,28.20
2018-09-10T10:41:11.521Z,28.60
2018-09-10T10:43:42.086Z,29.10
2018-09-10T10:46:10.779Z,28.90
2018-09-10T10:48:39.576Z,29.60
2018-09-10T10:51:08.248Z,29.70
2018-09-10T10:53:37.016Z,29.80
2018-09-10T10:56:07.992Z,30.20
2018-09-10T10:58:36.936Z,30.70
2018-09-10T11:01:11.025Z,30.30
2018-09-10T11:03:39.719Z,30.10
2018-09-10T11:06:08.604Z,30.30
2018-09-10T11:08:37.704Z,29.90
2018-09-10T11:11:06.784Z,30.40
2018-09-10T11:13:35.902Z,30.40
2018-09-10T11:16:04.734Z,30.60
2018-09-10T11:18:33.626Z,30.80
2018-09-10T11:21:02.744Z,31.20
2018-09-10T11:23:31.616Z,31.40
2018-09-10T11:26:00.368Z,31.10
2018-09-10T11:28:30.031Z,31.00
2018-09-10T11:31:00.688Z,30.60
2018-09-10T11:33:31.315Z,31.00
2018-09-10T11:36:01.661Z,31.20
2018-09-10T11:38:32.493Z,31.80
2018-09-10T11:41:01.224Z,31.60
2018-09-10T11:43:31.141Z,32.00
2018-09-10T11:45:59.810Z,32.30
2018-09-10T11:48:28.830Z,32.70
2018-09-10T11:50:57.693Z,32.60
2018-09-10T11:53:26.544Z,32.30
2018-09-10T11:55:55.384Z,32.20
2018-09-10T11:58:24.304Z,32.60
2018-09-10T12:00:53.286Z,32.40
2018-09-10T12:03:22.397Z,32.70
2018-09-10T12:05:51.942Z,32.90
2018-09-10T12:08:21.227Z,32.50
2018-09-10T12:10:54.419Z,32.50
2018-09-10T12:13:25.169Z,32.50
2018-09-10T12:15:58.622Z,32.50
2018-09-10T12:18:29.960Z,32.60
2018-09-10T12:20:58.672Z,32.80
2018-09-10T12:23:34.044Z,32.80
2018-09-10T12:26:02.898Z,32.70
2018-09-10T12:28:31.623Z,33.20
2018-09-10T12:31:00.294Z,33.20
2018-09-10T12:33:29.164Z,32.90
2018-09-10T12:36:03.739Z,33.10
2018-09-10T12:38:34.372Z,33.10
2018-09-10T12:41:11.027Z,33.20
2018-09-10T12:43:47.397Z,33.70
2018-09-10T12:46:24.538Z,33.60
2018-09-10T12:49:00.390Z,33.60
2018-09-10T12:51:29.626Z,32.00
2018-09-10T12:54:02.048Z,33.60
2018-09-10T12:56:32.187Z,33.40
2018-09-10T12:59:01.497Z,33.40
2018-09-10T13:01:30.357Z,33.90
2018-09-10T13:03:59.045Z,33.60
2018-09-10T13:06:27.914Z,33.60
2018-09-10T13:08:56.599Z,33.70
2018-09-10T13:11:25.491Z,33.30
2018-09-10T13:13:54.414Z,32.80
2018-09-10T13:16:23.302Z,32.70
2018-09-10T13:18:51.968Z,32.40
2018-09-10T13:22:50.083Z,32.10
2018-09-10T13:25:22.305Z,32.40
2018-09-10T13:27:53.515Z,31.70
2018-09-10T13:30:22.326Z,31.70
2018-09-10T13:32:51.084Z,31.30
2018-09-10T13:35:20.607Z,31.10
2018-09-10T13:37:50.246Z,31.20
2018-09-10T13:40:19.187Z,30.70
2018-09-10T13:42:48.006Z,31.60
2018-09-10T13:45:16.911Z,31.80
2018-09-10T13:47:45.805Z,32.10
2018-09-10T13:50:14.719Z,32.30
2018-09-10T13:52:43.360Z,32.20
2018-09-10T13:55:12.133Z,32.20
2018-09-10T13:57:40.865Z,32.30
2018-09-10T14:00:11.452Z,32.10
2018-09-10T14:02:40.833Z,32.10
2018-09-10T14:05:09.442Z,31.50
2018-09-10T14:07:38.397Z,30.50
2018-09-10T14:10:07.154Z,30.20
2018-09-10T14:12:36.102Z,29.60
2018-09-10T14:15:04.860Z,29.20
2018-09-10T14:17:33.506Z,29.00
2018-09-10T14:20:02.453Z,28.80
2018-09-10T14:22:31.303Z,28.60
2018-09-10T14:25:00.443Z,28.60
2018-09-10T14:27:29.294Z,27.20
2018-09-10T14:29:58.041Z,28.20
2018-09-10T14:32:26.919Z,28.10
2018-09-10T14:34:55.646Z,28.10
2018-09-10T14:37:24.450Z,28.00
2018-09-10T14:39:53.128Z,27.80
2018-09-10T14:42:21.828Z,27.90
2018-09-10T14:44:52.021Z,27.80
2018-09-10T14:47:22.194Z,27.60
2018-09-10T14:49:50.958Z,27.40
2018-09-10T14:52:19.716Z,27.40
2018-09-10T14:54:48.538Z,27.30
2018-09-10T14:57:17.274Z,27.10
2018-09-10T14:59:46.426Z,27.90
2018-09-10T15:02:15.496Z,27.00
2018-09-10T15:04:44.247Z,26.90
2018-09-10T15:08:42.169Z,26.80
2018-09-10T15:11:10.895Z,26.80
2018-09-10T15:13:39.560Z,26.80
2018-09-10T15:16:09.425Z,26.70
2018-09-10T15:18:38.513Z,26.70
2018-09-10T15:21:07.304Z,26.60
2018-09-10T15:23:36.488Z,26.60
2018-09-10T15:26:05.255Z,26.60
2018-09-10T15:28:41.258Z,26.60
2018-09-10T15:31:13.773Z,26.50
2018-09-10T15:33:42.540Z,26.50
2018-09-10T15:36:16.093Z,26.50
2018-09-10T15:38:50.264Z,26.50
2018-09-10T15:41:19.612Z,26.50
2018-09-10T15:43:48.311Z,26.40
2018-09-10T15:46:17.457Z,26.40
2018-09-10T15:48:46.261Z,26.30
2018-09-10T15:51:15.006Z,26.30
2018-09-10T15:53:43.611Z,26.30
2018-09-10T15:56:12.292Z,26.20
2018-09-10T15:58:42.053Z,26.20
2018-09-10T16:01:10.638Z,25.00
2018-09-10T16:03:39.954Z,26.30
2018-09-10T16:06:08.631Z,26.40
2018-09-10T16:08:37.301Z,26.40
2018-09-10T16:11:06.302Z,26.40
2018-09-10T16:13:35.179Z,26.30
2018-09-10T16:16:03.910Z,26.10
2018-09-10T16:18:32.753Z,26.10
2018-09-10T16:21:01.645Z,26.00
2018-09-10T16:23:30.277Z,25.90
2018-09-10T16:25:59.135Z,25.70
2018-09-10T16:28:28.037Z,25.60
2018-09-10T16:30:56.788Z,25.60
2018-09-10T16:33:25.502Z,25.20
2018-09-10T16:35:54.375Z,25.50
2018-09-10T16:38:23.097Z,25.40
2018-09-10T16:40:51.807Z,25.40
2018-09-10T16:43:20.672Z,25.40
2018-09-10T16:45:49.349Z,25.30
2018-09-10T16:48:18.852Z,25.30
2018-09-10T16:50:48.051Z,25.30
2018-09-10T16:53:16.810Z,25.20
2018-09-10T16:55:45.660Z,25.20
2018-09-10T16:58:14.345Z,25.10
2018-09-10T17:00:43.145Z,25.10
2018-09-10T17:03:11.879Z,25.00
2018-09-10T17:05:40.577Z,25.00
2018-09-10T17:08:09.734Z,24.80
2018-09-10T17:10:38.783Z,25.40
2018-09-10T17:13:09.220Z,24.60
2018-09-10T17:15:38.214Z,24.50
2018-09-10T17:18:06.915Z,24.40
2018-09-10T17:20:35.825Z,24.20
2018-09-10T17:23:04.836Z,24.10
2018-09-10T17:25:34.052Z,24.00
2018-09-10T17:28:02.989Z,23.90
2018-09-10T17:30:31.842Z,23.70
2018-09-10T17:33:03.199Z,23.60
2018-09-10T17:35:35.239Z,23.50
2018-09-10T17:38:05.747Z,23.40
2018-09-10T17:40:34.652Z,23.30
2018-09-10T17:43:03.475Z,23.20
2018-09-10T17:45:32.370Z,23.10
2018-09-10T17:48:01.327Z,22.90
2018-09-10T17:50:30.174Z,22.80
2018-09-10T17:52:58.900Z,22.70
2018-09-10T17:55:30.505Z,21.50
2018-09-10T17:57:59.184Z,22.60
2018-09-10T18:00:27.876Z,22.50
2018-09-10T18:02:56.656Z,22.50
2018-09-10T18:05:25.385Z,22.50
2018-09-10T18:07:54.191Z,22.40
2018-09-10T18:10:22.906Z,22.40
2018-09-10T18:12:51.832Z,22.40
2018-09-10T18:15:20.538Z,22.30
2018-09-10T18:17:49.310Z,22.20
2018-09-10T18:20:18.216Z,22.20
2018-09-10T18:22:47.051Z,22.10
2018-09-10T18:25:15.929Z,22.10
2018-09-10T18:27:44.728Z,22.00
2018-09-10T18:30:14.015Z,21.90
2018-09-10T18:32:42.807Z,21.80
2018-09-10T18:35:11.496Z,21.80
2018-09-10T18:37:40.433Z,20.50
2018-09-10T18:40:09.206Z,21.60
2018-09-10T18:42:38.078Z,21.60
2018-09-10T18:45:06.942Z,21.50
2018-09-10T18:47:35.693Z,21.40
2018-09-10T18:50:04.457Z,21.40
2018-09-10T18:52:33.415Z,21.30
2018-09-10T18:55:02.329Z,21.30
2018-09-10T18:57:31.272Z,21.30
2018-09-10T18:59:59.952Z,22.50
2018-09-10T19:02:28.656Z,21.10
2018-09-10T19:04:58.411Z,21.00
2018-09-10T19:07:27.161Z,21.00
2018-09-10T19:09:55.845Z,21.00
2018-09-10T19:12:24.580Z,20.90
2018-09-10T19:14:53.343Z,20.90
2018-09-10T19:17:22.747Z,20.80
2018-09-10T19:19:51.462Z,20.80
2018-09-10T19:22:20.342Z,20.70
2018-09-10T19:24:49.071Z,20.70
2018-09-10T19:27:17.869Z,20.80
2018-09-10T19:29:46.776Z,20.80
2018-09-10T19:32:15.524Z,20.80
2018-09-10T19:34:45.953Z,21.10
2018-09-10T19:37:14.958Z,20.80
2018-09-10T19:39:43.638Z,20.70
2018-09-10T19:42:13.979Z,20.70
2018-09-10T19:44:43.158Z,20.70
2018-09-10T19:47:11.936Z,20.60
2018-09-10T19:49:40.838Z,20.60
2018-09-10T19:52:09.575Z,20.60
2018-09-10T19:54:39.279Z,22.10
2018-09-10T19:57:08.198Z,20.50
2018-09-10T19:59:37.093Z,20.50
2018-09-10T20:02:06.107Z,20.50
2018-09-10T20:04:34.845Z,20.40
2018-09-10T20:07:03.616Z,20.40
2018-09-10T20:09:32.416Z,20.40
2018-09-10T20:12:01.265Z,20.40
2018-09-10T20:14:30.019Z,20.50
2018-09-10T20:16:58.850Z,20.30
2018-09-10T20:19:27.898Z,20.50
2018-09-10T20:21:56.762Z,20.40
2018-09-10T20:24:25.493Z,20.40
2018-09-10T20:26:54.163Z,20.30
2018-09-10T20:29:22.906Z,20.20
2018-09-10T20:31:51.621Z,20.20
2018-09-10T20:34:20.545Z,20.10
2018-09-10T20:36:49.337Z,20.10
2018-09-10T20:39:18.090Z,20.00
2018-09-10T20:41:46.946Z,20.00
2018-09-10T20:44:15.652Z,19.90
2018-09-10T20:46:44.338Z,19.90
2018-09-10T20:49:12.967Z,19.90
2018-09-10T20:51:41.664Z,19.90
2018-09-10T20:54:10.464Z,19.90
2018-09-10T20:56:39.127Z,20.00
2018-09-10T20:59:09.827Z,19.80
2018-09-10T21:01:40.349Z,19.80
2018-09-10T21:04:09.170Z,19.60
2018-09-10T21:06:37.917Z,19.60
2018-09-10T21:09:08.363Z,19.60
2018-09-10T21:11:38.222Z,19.60
2018-09-10T21:14:06.899Z,19.50
2018-09-10T21:16:35.686Z,19.50
2018-09-10T21:19:04.387Z,19.50
2018-09-10T21:21:33.110Z,18.80
2018-09-10T21:24:02.638Z,19.40
2018-09-10T21:26:31.604Z,19.40
2018-09-10T21:29:01.025Z,19.50
2018-09-10T21:31:29.892Z,19.50
2018-09-10T21:33:58.588Z,19.60
2018-09-10T21:36:27.313Z,19.60
2018-09-10T21:38:55.955Z,19.00
2018-09-10T21:41:24.641Z,19.60
2018-09-10T21:43:53.396Z,19.60
2018-09-10T21:46:23.313Z,20.20
2018-09-10T21:48:52.025Z,19.40
2018-09-10T21:51:20.734Z,19.20
2018-09-10T21:53:49.573Z,19.10
2018-09-10T21:56:18.413Z,19.00
2018-09-10T21:58:47.221Z,19.00
2018-09-10T22:01:15.955Z,18.90
2018-09-10T22:03:44.631Z,18.90
2018-09-10T22:06:13.202Z,18.80
2018-09-10T22:08:42.163Z,18.80
2018-09-10T22:11:10.892Z,18.80
2018-09-10T22:13:39.573Z,18.80
2018-09-10T22:16:08.318Z,18.80
2018-09-10T22:18:37.120Z,19.70
2018-09-10T22:21:06.035Z,18.70
2018-09-10T22:23:35.214Z,18.80
2018-09-10T22:26:03.860Z,18.80
2018-09-10T22:28:33.218Z,18.80
2018-09-10T22:31:02.131Z,18.70
2018-09-10T22:33:31.495Z,18.70
2018-09-10T22:36:00.193Z,18.70
2018-09-10T22:38:28.943Z,18.80
2018-09-10T22:40:57.710Z,18.90
2018-09-10T22:43:26.415Z,18.90
2018-09-10T22:45:55.143Z,18.90
2018-09-10T22:48:23.906Z,18.90
2018-09-10T22:50:53.743Z,18.90
2018-09-10T22:53:22.326Z,18.90
2018-09-10T22:55:51.080Z,18.90
2018-09-10T22:58:19.812Z,18.90
2018-09-10T23:00:48.620Z,18.80
2018-09-10T23:03:17.868Z,18.80
2018-09-10T23:05:46.659Z,18.70
2018-09-10T23:08:15.574Z,18.60
2018-09-10T23:10:44.258Z,18.60
2018-09-10T23:13:12.972Z,18.50
2018-09-10T23:15:41.726Z,18.40
2018-09-10T23:18:10.821Z,18.40
2018-09-10T23:20:39.494Z,18.40
2018-09-10T23:23:08.276Z,18.40
2018-09-10T23:25:37.065Z,18.40
2018-09-10T23:28:06.647Z,18.50
2018-09-10T23:30:35.423Z,18.50
2018-09-10T23:33:04.062Z,18.50
2018-09-10T23:35:32.674Z,18.40
2018-09-10T23:38:01.386Z,18.30
2018-09-10T23:40:30.149Z,18.10
2018-09-10T23:42:58.910Z,18.00
2018-09-10T23:45:28.137Z,17.90
2018-09-10T23:47:57.055Z,16.80
2018-09-10T23:50:25.934Z,17.90
2018-09-10T23:52:54.725Z,17.90
2018-09-10T23:55:23.386Z,17.90
2018-09-10T23:57:52.049Z,17.90
